createdAt,value
2023-02-03T00:01:14.054Z,4.30
2023-02-03T00:03:43.333Z,4.70
2023-02-03T00:06:11.517Z,5.70
2023-02-03T00:08:39.890Z,3.17
2023-02-03T00:11:08.214Z,2.57
2023-02-03T00:13:37.012Z,1.67
2023-02-03T00:16:06.698Z,2.10
2023-02-03T00:18:34.727Z,1.20
2023-02-03T00:21:04.136Z,1.67
2023-02-03T00:23:32.837Z,0.60
2023-02-03T00:26:08.330Z,1.13
2023-02-03T00:28:36.268Z,6.50
2023-02-03T00:31:04.557Z,1.73
2023-02-03T00:33:33.760Z,0.83
2023-02-03T00:36:07.789Z,0.70
2023-02-03T00:38:37.101Z,0.70
2023-02-03T00:41:05.265Z,2.07
2023-02-03T00:43:33.317Z,1.07
2023-02-03T00:46:03.924Z,0.47
2023-02-03T00:48:31.787Z,0.57
2023-02-03T00:50:59.997Z,0.53
2023-02-03T00:53:29.330Z,0.80
2023-02-03T00:55:57.240Z,0.70
2023-02-03T00:58:25.151Z,0.57
2023-02-03T01:00:53.035Z,0.60
2023-02-03T01:03:20.934Z,1.07
2023-02-03T01:05:50.164Z,1.40
2023-02-03T01:08:18.009Z,0.80
2023-02-03T01:10:47.269Z,1.33
2023-02-03T01:13:15.200Z,0.67
2023-02-03T01:15:47.452Z,2.43
2023-02-03T01:18:15.343Z,1.63
2023-02-03T01:20:45.227Z,1.30
2023-02-03T01:23:13.014Z,1.20
2023-02-03T01:25:40.929Z,2.30
2023-02-03T01:28:10.326Z,3.30
2023-02-03T01:30:38.478Z,2.20
2023-02-03T01:33:06.624Z,3.00
2023-02-03T01:35:35.544Z,2.50
2023-02-03T01:38:04.069Z,1.00
2023-02-03T01:40:33.213Z,2.40
2023-02-03T01:43:01.242Z,1.20
2023-02-03T01:45:30.686Z,3.70
2023-02-03T01:48:00.846Z,1.57
2023-02-03T01:50:33.219Z,1.73
2023-02-03T01:53:05.071Z,4.17
2023-02-03T01:55:36.900Z,3.77
2023-02-03T01:58:09.992Z,5.93
2023-02-03T02:00:39.373Z,2.10
2023-02-03T02:03:09.293Z,2.10
2023-02-03T02:05:42.741Z,5.13
2023-02-03T02:08:14.335Z,1.40
2023-02-03T02:10:42.308Z,2.57
2023-02-03T02:13:10.315Z,6.90
2023-02-03T02:15:54.448Z,2.90
2023-02-03T02:18:30.795Z,2.37
2023-02-03T02:21:44.612Z,3.10
2023-02-03T02:24:42.527Z,1.60
2023-02-03T02:27:25.478Z,3.17
2023-02-03T02:30:37.879Z,2.93
2023-02-03T02:33:18.889Z,2.43
2023-02-03T02:35:56.455Z,2.57
2023-02-03T02:38:39.453Z,3.37
2023-02-03T02:41:14.585Z,4.87
2023-02-03T02:43:48.403Z,2.97
2023-02-03T02:46:24.690Z,1.47
2023-02-03T02:49:00.680Z,2.77
2023-02-03T02:51:30.918Z,3.00
2023-02-03T02:54:01.844Z,1.53
2023-02-03T02:56:33.087Z,1.70
2023-02-03T02:59:04.464Z,3.33
2023-02-03T03:01:32.666Z,1.93
2023-02-03T03:04:06.153Z,2.37
2023-02-03T03:06:39.569Z,1.67
2023-02-03T03:09:11.612Z,2.83
2023-02-03T03:11:44.312Z,3.60
2023-02-03T03:14:13.964Z,2.33
2023-02-03T03:16:47.651Z,0.80
2023-02-03T03:19:22.581Z,4.37
2023-02-03T03:21:54.769Z,3.23
2023-02-03T03:24:27.927Z,2.87
2023-02-03T03:27:03.011Z,1.63
2023-02-03T03:29:35.806Z,2.10
2023-02-03T03:32:04.637Z,2.03
2023-02-03T03:34:34.468Z,0.77
2023-02-03T03:37:08.071Z,2.80
2023-02-03T03:39:43.893Z,1.47
2023-02-03T03:42:19.956Z,3.00
2023-02-03T03:44:53.954Z,2.60
2023-02-03T03:47:36.586Z,2.00
2023-02-03T03:50:10.507Z,1.23
2023-02-03T03:52:39.628Z,0.30
2023-02-03T03:55:11.085Z,0.87
2023-02-03T03:57:43.184Z,0.40
2023-02-03T04:00:16.132Z,2.40
2023-02-03T04:02:50.665Z,0.67
2023-02-03T04:05:21.051Z,2.00
2023-02-03T04:07:49.236Z,0.80
2023-02-03T04:10:27.027Z,2.00
2023-02-03T04:12:55.127Z,0.57
2023-02-03T04:15:23.068Z,0.60
2023-02-03T04:17:51.025Z,0.63
2023-02-03T04:20:20.426Z,2.57
2023-02-03T04:22:48.313Z,0.40
2023-02-03T04:25:16.210Z,1.07
2023-02-03T04:27:44.159Z,0.43
2023-02-03T04:30:13.560Z,0.30
2023-02-03T04:32:41.615Z,1.10
2023-02-03T04:35:09.885Z,0.80
2023-02-03T04:37:39.242Z,1.60
2023-02-03T04:40:08.499Z,2.33
2023-02-03T04:42:38.851Z,1.20
2023-02-03T04:45:08.684Z,0.60
2023-02-03T04:47:36.651Z,0.47
2023-02-03T04:50:05.079Z,2.93
2023-02-03T04:52:33.020Z,3.03
2023-02-03T04:55:03.936Z,0.63
2023-02-03T04:57:32.441Z,1.67
2023-02-03T05:00:00.288Z,2.97
2023-02-03T05:02:28.169Z,2.80
2023-02-03T05:04:56.096Z,1.23
2023-02-03T05:07:24.029Z,3.63
2023-02-03T05:09:52.442Z,3.60
2023-02-03T05:12:21.785Z,1.63
2023-02-03T05:14:49.737Z,0.93
2023-02-03T05:17:17.560Z,1.80
2023-02-03T05:19:45.409Z,2.53
2023-02-03T05:22:13.542Z,4.70
2023-02-03T05:24:41.419Z,1.33
2023-02-03T05:27:09.424Z,1.40
2023-02-03T05:29:38.643Z,1.00
2023-02-03T05:32:07.009Z,0.63
2023-02-03T05:34:35.104Z,1.67
2023-02-03T05:37:03.895Z,1.60
2023-02-03T05:39:31.743Z,2.27
2023-02-03T05:41:59.255Z,0.97
2023-02-03T05:44:29.143Z,0.53
2023-02-03T05:46:59.918Z,1.30
2023-02-03T05:49:27.844Z,4.73
2023-02-03T05:51:56.896Z,0.83
2023-02-03T05:54:24.800Z,1.33
2023-02-03T05:56:52.975Z,3.67
2023-02-03T05:59:20.871Z,0.47
2023-02-03T06:01:48.759Z,1.67
2023-02-03T06:04:18.255Z,1.20
2023-02-03T06:06:47.756Z,2.77
2023-02-03T06:09:15.693Z,1.17
2023-02-03T06:11:43.687Z,1.47
2023-02-03T06:14:11.525Z,1.93
2023-02-03T06:16:39.510Z,0.67
2023-02-03T06:19:07.498Z,1.00
2023-02-03T06:21:36.697Z,3.33
2023-02-03T06:24:05.176Z,0.77
2023-02-03T06:26:33.083Z,4.20
2023-02-03T06:29:01.003Z,1.60
2023-02-03T06:31:29.100Z,2.27
2023-02-03T06:33:57.488Z,3.43
2023-02-03T06:36:25.380Z,1.17
2023-02-03T06:38:55.545Z,1.30
2023-02-03T06:41:27.523Z,2.17
2023-02-03T06:43:55.429Z,1.97
2023-02-03T06:46:23.484Z,1.83
2023-02-03T06:48:51.369Z,3.00
2023-02-03T06:51:19.276Z,3.17
2023-02-03T06:53:47.512Z,1.03
2023-02-03T06:56:17.177Z,3.70
2023-02-03T06:58:45.550Z,5.20
2023-02-03T07:01:15.651Z,2.77
2023-02-03T07:03:43.599Z,2.20
2023-02-03T07:06:11.583Z,2.87
2023-02-03T07:08:39.477Z,1.97
2023-02-03T07:11:07.322Z,1.00
2023-02-03T07:13:36.740Z,4.90
2023-02-03T07:16:04.950Z,1.80
2023-02-03T07:18:48.411Z,2.03
2023-02-03T07:21:17.564Z,2.10
2023-02-03T07:23:48.444Z,2.60
2023-02-03T07:26:16.973Z,1.37
2023-02-03T07:28:46.535Z,5.43
2023-02-03T07:31:14.479Z,5.20
2023-02-03T07:33:42.405Z,1.63
2023-02-03T07:36:11.938Z,3.20
2023-02-03T07:38:39.959Z,6.43
2023-02-03T07:41:08.191Z,3.70
2023-02-03T07:43:36.067Z,12.43
2023-02-03T07:46:05.779Z,6.40
2023-02-03T07:48:33.705Z,5.77
2023-02-03T07:51:01.672Z,3.47
2023-02-03T07:53:29.721Z,5.77
2023-02-03T07:56:01.090Z,7.10
2023-02-03T07:58:29.086Z,10.80
2023-02-03T08:00:58.038Z,8.80
2023-02-03T08:03:27.427Z,10.80
2023-02-03T08:05:55.577Z,9.43
2023-02-03T08:08:23.444Z,6.70
2023-02-03T08:10:51.275Z,2.70
2023-02-03T08:13:19.089Z,4.13
2023-02-03T08:15:46.948Z,6.37
2023-02-03T08:18:15.059Z,5.53
2023-02-03T08:20:44.303Z,7.40
2023-02-03T08:23:12.544Z,4.30
2023-02-03T08:25:40.575Z,7.50
2023-02-03T08:28:08.561Z,6.27
2023-02-03T08:30:36.538Z,5.57
2023-02-03T08:33:05.082Z,8.73
2023-02-03T08:35:33.633Z,4.80
2023-02-03T08:38:02.879Z,8.10
2023-02-03T08:40:31.121Z,4.90
2023-02-03T08:42:59.302Z,6.80
2023-02-03T08:45:27.219Z,4.57
2023-02-03T08:47:55.140Z,9.70
2023-02-03T08:50:22.994Z,6.13
2023-02-03T08:52:50.817Z,8.07
2023-02-03T08:55:20.166Z,6.63
2023-02-03T08:57:50.149Z,6.27
2023-02-03T09:00:18.879Z,5.23
2023-02-03T09:02:46.719Z,7.33
2023-02-03T09:05:15.923Z,6.23
2023-02-03T09:07:43.892Z,3.07
2023-02-03T09:10:12.050Z,7.67
2023-02-03T09:12:41.284Z,3.00
2023-02-03T09:15:10.044Z,5.60
2023-02-03T09:17:37.856Z,4.73
2023-02-03T09:20:06.635Z,7.07
2023-02-03T09:22:34.585Z,6.63
2023-02-03T09:25:02.696Z,2.70
2023-02-03T09:27:30.549Z,2.90
2023-02-03T09:29:59.950Z,9.20
2023-02-03T09:32:27.831Z,2.57
2023-02-03T09:34:55.715Z,4.93
2023-02-03T09:37:23.621Z,4.17
2023-02-03T09:39:51.423Z,7.23
2023-02-03T09:42:51.144Z,2.13
2023-02-03T09:45:26.626Z,5.27
2023-02-03T09:47:58.185Z,2.93
2023-02-03T09:50:29.337Z,4.07
2023-02-03T09:52:59.853Z,10.60
2023-02-03T09:55:36.609Z,3.60
2023-02-03T09:58:09.810Z,16.17
2023-02-03T10:00:44.593Z,7.07
2023-02-03T10:03:22.825Z,5.07
2023-02-03T10:06:04.859Z,9.83
2023-02-03T10:08:47.982Z,12.93
2023-02-03T10:11:24.135Z,10.20
2023-02-03T10:14:05.071Z,8.57
2023-02-03T10:16:54.946Z,8.33
2023-02-03T10:19:28.103Z,23.93
2023-02-03T10:21:59.221Z,10.73
2023-02-03T10:24:38.740Z,12.67
2023-02-03T10:27:07.403Z,12.63
2023-02-03T10:29:40.654Z,23.40
2023-02-03T10:32:11.760Z,17.13
2023-02-03T10:34:40.918Z,11.90
2023-02-03T10:37:19.912Z,11.17
2023-02-03T10:39:50.323Z,8.07
2023-02-03T10:42:19.383Z,5.43
2023-02-03T10:44:50.529Z,1.57
2023-02-03T10:47:26.863Z,1.63
2023-02-03T10:49:58.159Z,0.93
2023-02-03T10:52:29.216Z,1.13
2023-02-03T10:54:59.331Z,0.40
2023-02-03T10:57:30.557Z,0.70
2023-02-03T11:00:08.986Z,0.83
2023-02-03T11:02:38.609Z,1.60
2023-02-03T11:05:11.901Z,1.13
2023-02-03T11:07:39.770Z,0.50
2023-02-03T11:10:29.899Z,1.30
2023-02-03T11:13:13.419Z,1.93
2023-02-03T11:15:58.604Z,0.80
2023-02-03T11:18:55.127Z,1.00
2023-02-03T11:21:26.451Z,3.03
2023-02-03T11:24:02.731Z,23.67
2023-02-03T11:26:34.305Z,18.77
2023-02-03T11:29:04.644Z,6.73
2023-02-03T11:31:35.325Z,14.33
2023-02-03T11:34:07.295Z,1.67
2023-02-03T11:36:36.683Z,5.90
2023-02-03T11:39:22.467Z,2.70
2023-02-03T11:41:50.751Z,3.13
2023-02-03T11:44:22.286Z,4.20
2023-02-03T11:46:54.221Z,4.93
2023-02-03T11:49:42.656Z,3.47
2023-02-03T11:52:29.404Z,2.37
2023-02-03T11:55:08.814Z,2.80
2023-02-03T11:57:45.659Z,3.67
2023-02-03T12:00:29.277Z,0.60
2023-02-03T12:03:31.978Z,1.70
2023-02-03T12:06:29.965Z,6.63
2023-02-03T12:09:20.716Z,4.43
2023-02-03T12:12:18.811Z,2.53
2023-02-03T12:15:00.483Z,3.23
2023-02-03T12:17:41.609Z,3.20
2023-02-03T12:20:41.092Z,2.97
2023-02-03T12:23:23.438Z,3.13
2023-02-03T12:26:05.876Z,2.17
2023-02-03T12:28:47.090Z,3.90
2023-02-03T12:31:19.662Z,2.37
2023-02-03T12:33:53.524Z,5.03
2023-02-03T12:36:26.645Z,8.70
2023-02-03T12:39:01.620Z,4.83
2023-02-03T12:41:33.183Z,6.23
2023-02-03T12:44:05.810Z,6.33
2023-02-03T12:46:41.745Z,4.53
2023-02-03T12:49:17.492Z,7.10
2023-02-03T12:51:50.868Z,5.17
2023-02-03T12:54:34.156Z,5.40
2023-02-03T12:57:15.498Z,8.03
2023-02-03T12:59:45.177Z,4.07
2023-02-03T13:02:19.787Z,6.43
2023-02-03T13:04:55.989Z,2.07
2023-02-03T13:07:29.010Z,1.00
2023-02-03T13:10:05.143Z,1.80
2023-02-03T13:12:37.147Z,1.33
2023-02-03T13:15:20.079Z,1.77
2023-02-03T13:17:54.269Z,4.80
2023-02-03T13:20:24.619Z,3.13
2023-02-03T13:22:53.294Z,2.07
2023-02-03T13:25:27.908Z,1.10
2023-02-03T13:28:08.874Z,1.50
2023-02-03T13:31:06.502Z,1.03
2023-02-03T13:33:52.142Z,0.73
2023-02-03T13:36:42.684Z,2.67
2023-02-03T13:39:30.203Z,2.90
2023-02-03T13:42:15.093Z,3.97
2023-02-03T13:44:45.607Z,1.37
2023-02-03T13:47:17.671Z,3.07
2023-02-03T13:49:50.335Z,1.10
2023-02-03T13:52:32.079Z,0.90
2023-02-03T13:55:01.129Z,1.03
2023-02-03T13:57:35.553Z,1.47
2023-02-03T14:00:05.843Z,1.80
2023-02-03T14:02:46.437Z,0.40
2023-02-03T14:05:43.310Z,1.10
2023-02-03T14:08:53.989Z,2.80
2023-02-03T14:11:46.840Z,1.10
2023-02-03T14:14:57.141Z,4.60
2023-02-03T14:17:55.622Z,3.30
2023-02-03T14:20:59.073Z,2.20
2023-02-03T14:23:35.527Z,3.27
2023-02-03T14:26:04.316Z,4.03
2023-02-03T14:28:40.121Z,2.33
2023-02-03T14:31:16.506Z,6.10
2023-02-03T14:34:09.427Z,4.53
2023-02-03T14:36:44.601Z,4.83
2023-02-03T14:40:01.449Z,3.03
2023-02-03T14:42:44.275Z,5.13
2023-02-03T14:45:30.665Z,1.90
2023-02-03T14:48:15.263Z,3.37
2023-02-03T14:50:59.422Z,9.63
2023-02-03T14:54:12.003Z,10.57
2023-02-03T14:57:05.674Z,3.10
2023-02-03T14:59:40.735Z,2.67
2023-02-03T15:02:14.959Z,2.30
2023-02-03T15:04:45.774Z,3.00
2023-02-03T15:07:37.295Z,2.07
2023-02-03T15:10:13.077Z,3.27
2023-02-03T15:12:46.439Z,4.00
2023-02-03T15:15:15.848Z,5.53
2023-02-03T15:17:43.738Z,1.80
2023-02-03T15:20:33.652Z,4.07
2023-02-03T15:23:02.522Z,3.40
2023-02-03T15:25:32.998Z,3.23
2023-02-03T15:28:17.069Z,2.33
2023-02-03T15:30:45.606Z,6.87
2023-02-03T15:33:18.118Z,1.80
2023-02-03T15:35:50.634Z,3.13
2023-02-03T15:38:26.507Z,3.47
2023-02-03T15:40:58.066Z,3.57
2023-02-03T15:43:32.433Z,4.53
2023-02-03T15:46:08.735Z,2.47
2023-02-03T15:48:43.400Z,3.63
2023-02-03T15:51:17.481Z,8.40
2023-02-03T15:53:53.146Z,8.97
2023-02-03T15:56:26.625Z,4.70
2023-02-03T15:58:55.193Z,2.50
2023-02-03T16:01:26.648Z,2.47
2023-02-03T16:03:56.950Z,0.97
2023-02-03T16:06:35.789Z,1.00
2023-02-03T16:09:05.091Z,0.70
2023-02-03T16:11:35.158Z,1.47
2023-02-03T16:14:04.925Z,0.70
2023-02-03T16:16:38.027Z,2.50
2023-02-03T16:19:07.619Z,2.27
2023-02-03T16:21:38.722Z,1.07
2023-02-03T16:24:07.570Z,1.03
2023-02-03T16:26:38.553Z,3.17
2023-02-03T16:29:31.581Z,1.00
2023-02-03T16:32:18.016Z,2.07
2023-02-03T16:35:03.741Z,2.70
2023-02-03T16:37:53.199Z,2.50
2023-02-03T16:40:40.536Z,3.60
2023-02-03T16:43:30.828Z,4.10
2023-02-03T16:46:21.167Z,5.57
2023-02-03T16:49:37.775Z,1.30
2023-02-03T16:52:30.109Z,1.70
2023-02-03T16:55:12.988Z,2.33
2023-02-03T16:57:50.830Z,0.70
2023-02-03T17:00:46.901Z,3.23
2023-02-03T17:03:45.031Z,1.10
2023-02-03T17:06:36.105Z,8.07
2023-02-03T17:09:13.434Z,6.27
2023-02-03T17:12:17.921Z,3.40
2023-02-03T17:14:55.909Z,4.07
2023-02-03T17:17:32.409Z,2.37
2023-02-03T17:20:22.303Z,2.73
2023-02-03T17:23:05.122Z,2.33
2023-02-03T17:25:45.917Z,2.87
2023-02-03T17:28:29.506Z,1.40
2023-02-03T17:31:17.890Z,3.37
2023-02-03T17:33:58.204Z,4.03
2023-02-03T17:37:01.215Z,4.63
2023-02-03T17:53:53.677Z,2.00
2023-02-03T17:56:23.558Z,4.03
2023-02-03T17:58:56.510Z,2.73
2023-02-03T18:01:27.065Z,1.73
2023-02-03T18:03:58.130Z,0.97
2023-02-03T18:06:28.024Z,0.50
2023-02-03T18:09:01.116Z,2.40
2023-02-03T18:11:30.417Z,3.33
2023-02-03T18:13:58.445Z,3.00
2023-02-03T18:16:32.481Z,1.70
2023-02-03T18:19:02.793Z,3.50
2023-02-03T18:21:32.396Z,2.43
2023-02-03T18:24:01.826Z,5.43
2023-02-03T18:26:32.662Z,1.63
2023-02-03T18:29:00.619Z,0.90
2023-02-03T18:31:30.199Z,2.30
2023-02-03T18:34:02.427Z,1.77
2023-02-03T18:36:30.530Z,1.63
2023-02-03T18:38:58.489Z,2.20
2023-02-03T18:41:27.185Z,1.40
2023-02-03T18:43:55.439Z,4.57
2023-02-03T18:46:24.829Z,3.70
2023-02-03T18:48:56.123Z,3.13
2023-02-03T18:51:25.620Z,2.50
2023-02-03T18:53:58.453Z,2.23
2023-02-03T18:56:34.852Z,21.47
2023-02-03T18:59:05.751Z,4.87
2023-02-03T19:01:34.197Z,3.20
2023-02-03T19:04:04.799Z,1.07
2023-02-03T19:06:34.620Z,5.03
2023-02-03T19:09:03.265Z,6.03
2023-02-03T19:11:31.221Z,1.83
2023-02-03T19:13:59.096Z,2.60
2023-02-03T19:16:27.272Z,3.80
2023-02-03T19:18:55.188Z,3.63
2023-02-03T19:21:24.424Z,3.07
2023-02-03T19:23:52.311Z,2.33
2023-02-03T19:26:20.149Z,3.37
2023-02-03T19:28:48.012Z,1.63
2023-02-03T19:31:16.412Z,2.80
2023-02-03T19:33:44.705Z,1.47
2023-02-03T19:36:12.903Z,1.90
2023-02-03T19:38:42.173Z,1.00
2023-02-03T19:41:11.752Z,0.70
2023-02-03T19:43:40.011Z,1.60
2023-02-03T19:46:08.191Z,1.30
2023-02-03T19:48:36.718Z,2.20
2023-02-03T19:51:04.787Z,3.70
2023-02-03T19:53:33.014Z,3.17
2023-02-03T19:56:02.307Z,2.33
2023-02-03T19:58:30.708Z,3.23
2023-02-03T20:00:58.667Z,7.30
2023-02-03T20:03:26.719Z,8.63
2023-02-03T20:05:54.651Z,3.77
2023-02-03T20:08:22.542Z,3.80
2023-02-03T20:10:51.426Z,5.90
2023-02-03T20:13:20.772Z,10.97
2023-02-03T20:15:48.760Z,11.00
2023-02-03T20:18:16.730Z,5.97
2023-02-03T20:20:44.649Z,21.10
2023-02-03T20:23:12.577Z,12.87
2023-02-03T20:25:40.428Z,21.37
2023-02-03T20:28:08.615Z,17.20
2023-02-03T20:30:38.697Z,23.43
2023-02-03T20:33:07.042Z,19.93
2023-02-03T20:35:35.113Z,12.53
2023-02-03T20:38:03.050Z,17.40
2023-02-03T20:40:31.244Z,14.13
2023-02-03T20:43:03.137Z,6.27
2023-02-03T20:45:31.433Z,8.97
2023-02-03T20:48:01.136Z,3.50
2023-02-03T20:50:37.474Z,2.87
2023-02-03T20:53:14.106Z,6.57
2023-02-03T20:55:42.087Z,2.73
2023-02-03T20:58:19.150Z,0.60
2023-02-03T21:00:47.814Z,0.50
2023-02-03T21:03:36.913Z,0.80
2023-02-03T21:06:13.055Z,0.40
2023-02-03T21:08:40.935Z,0.57
2023-02-03T21:11:12.540Z,0.33
2023-02-03T21:13:41.474Z,2.10
2023-02-03T21:16:17.376Z,0.70
2023-02-03T21:18:50.344Z,0.50
2023-02-03T21:21:24.761Z,0.77
2023-02-03T21:23:53.913Z,0.47
2023-02-03T21:26:23.956Z,0.73
2023-02-03T21:28:53.368Z,0.50
2023-02-03T21:31:27.930Z,0.50
2023-02-03T21:33:59.936Z,4.53
2023-02-03T21:36:31.297Z,0.33
2023-02-03T21:39:00.600Z,7.53
2023-02-03T21:41:33.861Z,6.33
2023-02-03T21:44:02.673Z,5.27
2023-02-03T21:46:33.834Z,4.30
2023-02-03T21:49:04.870Z,6.50
2023-02-03T21:51:36.319Z,7.10
2023-02-03T21:54:23.626Z,4.77
2023-02-03T21:56:51.974Z,12.00
2023-02-03T21:59:22.052Z,8.47
2023-02-03T22:01:53.008Z,6.60
2023-02-03T22:04:22.659Z,7.10
2023-02-03T22:06:53.907Z,4.97
2023-02-03T22:09:23.741Z,13.80
2023-02-03T22:11:52.284Z,9.17
2023-02-03T22:14:21.779Z,27.20
2023-02-03T22:16:51.172Z,11.97
2023-02-03T22:19:19.403Z,5.37
2023-02-03T22:21:50.925Z,7.30
2023-02-03T22:24:19.150Z,8.67
2023-02-03T22:26:47.384Z,5.07
2023-02-03T22:29:15.363Z,4.53
2023-02-03T22:31:43.496Z,3.87
2023-02-03T22:34:11.430Z,5.87
2023-02-03T22:36:39.333Z,4.13
2023-02-03T22:39:08.603Z,3.90
2023-02-03T22:41:36.877Z,5.10
2023-02-03T22:44:04.801Z,4.67
2023-02-03T22:46:32.761Z,5.37
2023-02-03T22:49:00.785Z,4.10
2023-02-03T22:51:28.694Z,6.00
2023-02-03T22:53:56.627Z,7.37
2023-02-03T22:56:25.930Z,15.60
2023-02-03T22:58:53.758Z,12.57
2023-02-03T23:01:21.711Z,18.83
2023-02-03T23:03:49.577Z,18.73
2023-02-03T23:06:17.501Z,13.93
2023-02-03T23:08:45.386Z,12.70
2023-02-03T23:11:13.230Z,19.70
2023-02-03T23:13:42.442Z,6.83
2023-02-03T23:16:10.415Z,13.53
2023-02-03T23:18:38.301Z,10.47
2023-02-03T23:21:06.564Z,11.83
2023-02-03T23:23:34.571Z,15.70
2023-02-03T23:26:02.429Z,9.50
2023-02-03T23:28:30.313Z,18.30
2023-02-03T23:30:59.749Z,9.40
2023-02-03T23:33:27.840Z,11.10
2023-02-03T23:35:55.567Z,10.37
2023-02-03T23:38:23.436Z,11.33
2023-02-03T23:40:51.638Z,13.03
2023-02-03T23:43:19.586Z,10.37
2023-02-03T23:45:47.543Z,10.37
2023-02-03T23:48:17.706Z,13.27
2023-02-03T23:50:45.620Z,16.80
2023-02-03T23:53:13.555Z,18.33
2023-02-03T23:55:41.420Z,20.60
2023-02-03T23:58:09.304Z,15.00
